Terminal Aerodrome Forecast
Issued by NWS

Home | Current Version | Previous Version | Graphics & Text | Print | Product List | Glossary On
Versions: 1 2 3 4 5 6 7 8 9 10 11 12 13 14 15 16 17 18 19 20 21 22 23 24 25 26 27 28 29 30 31 32 33 34 35 36 37 38
000
FTUS43 KLOT 300500
TAFORD
TAF
KORD 300520Z 3006/3112 33014G22KT P6SM -SN OVC045
      TEMPO 3006/3007 4SM -SN OVC035
     FM300900 33010KT P6SM BKN035
     FM301700 30007KT P6SM BKN120
     FM302300 23005KT P6SM SCT120=

USA.gov is the U.S. government's official web portal to all federal, state and local government web resources and services.